Time;durP1;ratioP1;P1;durP2;ratioP2;P2;SDS_P1;SDS_P2;PMS_P1;PMS_P2;Temp;Humidity;BMP_temperature;BMP_pressure;BME280_temperature;BME280_humidity;BME280_pressure;Samples;Min_cycle;Max_cycle;Signal;HPM_P1;HPM_P2
2022/12/21 00:01:21;;;;;;;30.63;15.82;;;10.70;99.90;;;;;;4974485;28;92503;-75
2022/12/21 00:04:01;;;;;;;38.50;17.37;;;10.70;99.90;;;;;;4973269;28;98714;-75
2022/12/21 00:06:30;;;;;;;38.90;16.80;;;10.70;99.90;;;;;;4991082;28;95140;-75
2022/12/21 00:08:59;;;;;;;33.75;16.83;;;10.70;99.90;;;;;;4976036;28;92434;-75
2022/12/21 00:11:27;;;;;;;40.63;17.17;;;10.70;99.90;;;;;;4974649;28;92904;-75
2022/12/21 00:13:56;;;;;;;40.92;17.52;;;10.70;99.90;;;;;;4974372;28;95835;-75
2022/12/21 00:16:26;;;;;;;39.42;17.70;;;10.70;99.90;;;;;;4975615;28;92924;-75
2022/12/21 00:18:55;;;;;;;34.38;16.40;;;10.60;99.90;;;;;;4974623;28;92587;-75
2022/12/21 00:21:25;;;;;;;39.17;16.83;;;10.60;99.90;;;;;;4974245;28;91806;-75
2022/12/21 00:23:54;;;;;;;32.80;16.08;;;10.60;99.90;;;;;;4975881;28;93220;-75
2022/12/21 00:26:22;;;;;;;37.05;16.75;;;10.60;99.90;;;;;;4975392;28;93090;-75
2022/12/21 00:28:51;;;;;;;43.35;16.42;;;10.50;99.90;;;;;;4974480;28;94922;-75
2022/12/21 00:31:21;;;;;;;36.88;17.25;;;10.60;99.90;;;;;;4990748;28;92532;-75
2022/12/21 00:33:48;;;;;;;45.35;17.60;;;10.50;99.90;;;;;;4974368;28;96322;-75
2022/12/21 00:36:17;;;;;;;38.63;16.75;;;10.50;99.90;;;;;;4975519;28;93372;-75
2022/12/21 00:38:48;;;;;;;37.75;17.52;;;10.40;99.90;;;;;;4975731;28;93024;-75
2022/12/21 00:41:22;;;;;;;45.58;17.23;;;10.40;99.90;;;;;;4974281;28;92656;-75
2022/12/21 00:43:53;;;;;;;44.05;17.08;;;10.30;99.90;;;;;;4990521;28;93492;-75
2022/12/21 00:46:22;;;;;;;42.70;18.25;;;10.20;99.90;;;;;;4973729;28;96019;-75
2022/12/21 00:48:50;;;;;;;50.03;18.00;;;10.20;99.90;;;;;;4974238;28;92455;-74
2022/12/21 00:51:20;;;;;;;39.60;17.13;;;10.10;99.90;;;;;;4974189;28;92479;-75
2022/12/21 00:53:47;;;;;;;51.90;18.88;;;10.10;99.90;;;;;;4972625;28;98243;-75
2022/12/21 00:56:16;;;;;;;45.30;18.35;;;10.10;99.90;;;;;;4973849;28;97784;-75
2022/12/21 00:58:45;;;;;;;41.33;17.20;;;10.00;99.90;;;;;;4990215;28;92450;-75
2022/12/21 01:01:21;;;;;;;53.42;20.15;;;10.00;99.90;;;;;;4975234;28;92456;-75
2022/12/21 01:03:54;;;;;;;43.55;18.33;;;10.00;99.90;;;;;;4973812;28;95607;-75
2022/12/21 01:06:25;;;;;;;48.30;19.13;;;9.90;99.90;;;;;;4973847;28;94562;-75
2022/12/21 01:08:54;;;;;;;54.05;19.58;;;9.90;99.90;;;;;;4973922;28;92419;-75
2022/12/21 01:11:23;;;;;;;47.00;18.08;;;9.80;99.90;;;;;;4974315;28;91741;-75
2022/12/21 01:13:50;;;;;;;51.45;19.27;;;9.70;99.90;;;;;;4975049;28;93482;-75
2022/12/21 01:16:21;;;;;;;59.38;19.38;;;9.70;99.90;;;;;;4973767;28;95877;-75
2022/12/21 01:18:48;;;;;;;91.65;21.77;;;9.60;99.90;;;;;;4989181;28;94913;-75
2022/12/21 01:21:25;;;;;;;76.60;21.17;;;9.60;99.90;;;;;;4975127;28;92440;-75
2022/12/21 01:23:54;;;;;;;53.30;19.13;;;9.50;99.90;;;;;;4973693;28;96000;-75
2022/12/21 01:26:22;;;;;;;69.50;20.08;;;9.40;99.90;;;;;;4990159;28;96157;-75
2022/12/21 01:28:49;;;;;;;68.72;20.25;;;9.40;99.90;;;;;;4957274;28;92577;-75
2022/12/21 01:31:16;;;;;;;55.33;19.70;;;9.30;99.90;;;;;;4973812;28;93050;-75
2022/12/21 01:33:43;;;;;;;63.58;20.70;;;9.30;99.90;;;;;;4973073;28;95535;-75
2022/12/21 01:36:14;;;;;;;63.35;19.38;;;9.30;99.90;;;;;;4975107;28;92852;-75
2022/12/21 01:38:42;;;;;;;58.90;19.58;;;9.30;99.90;;;;;;4973311;28;92514;-75
2022/12/21 01:41:25;;;;;;;61.33;19.30;;;9.30;99.90;;;;;;4973735;28;93120;-75
2022/12/21 01:44:34;;;;;;;53.00;18.55;;;9.30;99.90;;;;;;4973554;28;97119;-75
2022/12/21 01:47:03;;;;;;;47.35;16.58;;;9.30;99.90;;;;;;4966275;28;98132;-75
2022/12/21 01:49:32;;;;;;;60.28;18.15;;;9.20;99.90;;;;;;4989653;28;92562;-75
2022/12/21 01:52:12;;;;;;;55.35;17.67;;;9.20;99.90;;;;;;4973354;28;92529;-75
2022/12/21 01:54:47;;;;;;;58.45;18.15;;;9.30;99.90;;;;;;4989784;28;93293;-75
2022/12/21 01:57:20;;;;;;;60.13;19.35;;;9.20;99.90;;;;;;4974750;28;93436;-75
2022/12/21 01:59:50;;;;;;;46.85;16.73;;;9.20;99.90;;;;;;4977504;28;92476;-75
2022/12/21 02:02:22;;;;;;;52.47;16.95;;;9.30;99.90;;;;;;4978493;28;91637;-75
2022/12/21 02:04:52;;;;;;;55.33;17.30;;;9.40;99.90;;;;;;4992964;28;93359;-75
2022/12/21 02:07:23;;;;;;;52.28;16.60;;;9.40;99.90;;;;;;4993148;28;95863;-75
2022/12/21 02:09:53;;;;;;;40.58;14.45;;;9.40;99.90;;;;;;4991853;28;94849;-75
2022/12/21 02:12:22;;;;;;;54.92;16.15;;;9.40;99.90;;;;;;4976896;28;92498;-75
2022/12/21 02:14:49;;;;;;;46.40;14.88;;;9.40;99.90;;;;;;4977531;28;93323;-75
2022/12/21 02:18:09;;;;;;;45.70;15.30;;;9.30;99.90;;;;;;4960147;28;94082;-75
2022/12/21 02:21:15;;;;;;;55.90;16.17;;;9.40;99.90;;;;;;4975933;28;92524;-75
2022/12/21 02:24:33;;;;;;;44.25;14.68;;;9.40;99.90;;;;;;4968049;28;92906;-75
2022/12/21 02:27:20;;;;;;;51.17;15.18;;;9.40;99.90;;;;;;4964628;28;94929;-74
2022/12/21 02:30:06;;;;;;;55.47;15.18;;;9.30;99.90;;;;;;4976366;28;95554;-74
2022/12/21 02:33:18;;;;;;;52.83;15.00;;;9.40;99.90;;;;;;4976185;28;92486;-75
2022/12/21 02:36:10;;;;;;;44.08;14.88;;;9.40;99.90;;;;;;4968063;28;93007;-75
2022/12/21 02:39:06;;;;;;;55.30;17.60;;;9.40;99.90;;;;;;4976286;28;95477;-75
2022/12/21 02:42:02;;;;;;;53.85;15.10;;;9.40;99.90;;;;;;4975900;28;98418;-75
2022/12/21 02:44:54;;;;;;;64.03;15.75;;;9.50;99.90;;;;;;4977842;28;93028;-75
2022/12/21 02:47:38;;;;;;;60.65;15.18;;;9.40;99.90;;;;;;4977436;28;92469;-75
2022/12/21 02:50:16;;;;;;;48.00;14.30;;;9.40;99.90;;;;;;4992624;28;95824;-75
2022/12/21 02:53:00;;;;;;;57.63;15.18;;;9.40;99.90;;;;;;4975629;28;93094;-75
2022/12/21 02:55:27;;;;;;;53.47;12.98;;;9.40;99.90;;;;;;4992410;28;92985;-75
2022/12/21 02:58:12;;;;;;;51.15;13.93;;;9.40;99.90;;;;;;4976259;28;91897;-75
2022/12/21 03:00:52;;;;;;;70.05;13.73;;;9.50;99.90;;;;;;4975589;28;96009;-75
2022/12/21 03:06:22;;;;;;;60.53;14.68;;;9.40;99.90;;;;;;4991165;28;95477;-75
2022/12/21 03:09:01;;;;;;;67.30;16.17;;;9.40;99.90;;;;;;4975239;28;92542;-75
2022/12/21 03:12:15;;;;;;;50.38;14.02;;;9.50;99.90;;;;;;4959506;28;95653;-75
2022/12/21 03:15:00;;;;;;;53.17;15.95;;;9.50;99.90;;;;;;4988364;28;93163;-75
2022/12/21 03:17:41;;;;;;;68.47;16.17;;;9.50;99.90;;;;;;4975551;28;92469;-75
2022/12/21 03:20:30;;;;;;;51.13;15.10;;;9.40;99.90;;;;;;4975567;28;92697;-75
2022/12/21 03:23:16;;;;;;;76.35;15.82;;;9.40;99.90;;;;;;4974977;28;96217;-75
2022/12/21 03:26:13;;;;;;;70.57;16.45;;;9.40;99.90;;;;;;4992340;28;93312;-75
2022/12/21 03:28:43;;;;;;;88.97;16.77;;;9.50;99.90;;;;;;4976919;28;92464;-75
2022/12/21 03:31:15;;;;;;;178.38;19.35;;;9.40;99.90;;;;;;4975254;28;93337;-75
2022/12/21 03:33:48;;;;;;;111.40;18.58;;;9.50;99.90;;;;;;4973039;28;98368;-75
2022/12/21 03:36:32;;;;;;;70.80;16.15;;;9.50;99.90;;;;;;4976739;28;95786;-75
2022/12/21 03:39:06;;;;;;;105.85;18.40;;;9.50;99.90;;;;;;4974943;28;92531;-75
2022/12/21 03:41:38;;;;;;;129.45;18.02;;;9.50;99.90;;;;;;4976592;28;92489;-75
2022/12/21 03:44:10;;;;;;;97.03;16.73;;;9.50;99.90;;;;;;4974866;28;95492;-75
2022/12/21 03:46:43;;;;;;;104.25;16.20;;;9.50;99.90;;;;;;4976306;28;93317;-75
2022/12/21 03:49:36;;;;;;;99.87;17.33;;;9.50;99.90;;;;;;4975227;28;92614;-75
2022/12/21 03:52:19;;;;;;;103.35;16.83;;;9.50;99.90;;;;;;4976583;28;91739;-75
2022/12/21 03:55:23;;;;;;;122.35;15.48;;;9.50;99.90;;;;;;4976244;28;92803;-75
2022/12/21 03:57:50;;;;;;;113.15;14.30;;;9.40;99.90;;;;;;4974786;28;94127;-74
2022/12/21 04:00:18;;;;;;;109.05;14.70;;;9.40;99.90;;;;;;4974807;28;95405;-74
2022/12/21 04:03:15;;;;;;;69.05;12.90;;;9.30;99.90;;;;;;4974638;28;92566;-74
2022/12/21 04:05:53;;;;;;;101.75;12.65;;;9.40;99.90;;;;;;4976268;28;93299;-75
2022/12/21 04:08:22;;;;;;;102.65;13.75;;;9.30;99.90;;;;;;4974556;28;95704;-74
2022/12/21 04:10:49;;;;;;;146.68;14.65;;;9.30;99.90;;;;;;4974576;28;92631;-74
2022/12/21 04:13:16;;;;;;;156.30;15.80;;;9.30;99.90;;;;;;4974452;28;92455;-74
2022/12/21 04:21:14;;;;;;;120.97;14.77;;;9.30;99.90;;;;;;4988260;28;92984;-74
2022/12/21 04:29:13;;;;;;;142.82;15.40;;;9.30;99.90;;;;;;4975513;28;95445;-75
2022/12/21 04:31:40;;;;;;;147.00;16.75;;;9.30;99.90;;;;;;4990822;28;92403;-74
2022/12/21 04:34:07;;;;;;;116.82;14.38;;;9.30;99.90;;;;;;4974083;28;92454;-74
2022/12/21 04:39:19;;;;;;;103.70;15.23;;;9.30;99.90;;;;;;4975524;28;92819;-74
2022/12/21 04:41:46;;;;;;;230.57;19.75;;;9.30;99.90;;;;;;4975444;28;92450;-74
2022/12/21 04:44:13;;;;;;;296.63;24.75;;;9.30;99.90;;;;;;4974350;28;91770;-74
2022/12/21 04:46:40;;;;;;;183.07;20.30;;;9.30;99.90;;;;;;4975478;28;93175;-75
2022/12/21 04:49:07;;;;;;;129.48;17.38;;;9.30;99.90;;;;;;4975251;28;93085;-75
2022/12/21 04:51:34;;;;;;;129.98;17.98;;;9.30;99.90;;;;;;4973358;28;95368;-74
2022/12/21 04:54:03;;;;;;;115.80;16.63;;;9.30;99.90;;;;;;4973806;28;92490;-75
2022/12/21 04:56:30;;;;;;;87.93;15.70;;;9.30;99.90;;;;;;4973857;28;96229;-75
2022/12/21 04:58:57;;;;;;;103.45;16.45;;;9.30;99.90;;;;;;4975447;28;92788;-75
2022/12/21 05:01:24;;;;;;;102.68;16.85;;;9.30;99.90;;;;;;4975197;28;92344;-75
2022/12/21 05:03:55;;;;;;;109.72;17.00;;;9.30;99.90;;;;;;4973951;28;92561;-75
2022/12/21 05:06:22;;;;;;;110.78;16.73;;;9.30;99.90;;;;;;4990147;28;94502;-75
2022/12/21 05:08:49;;;;;;;114.63;17.00;;;9.30;99.90;;;;;;4990878;28;93109;-75
2022/12/21 05:11:19;;;;;;;106.60;17.05;;;9.30;99.90;;;;;;4975091;28;92814;-75
2022/12/21 05:13:47;;;;;;;136.55;18.00;;;9.30;99.90;;;;;;4973904;28;92384;-75
2022/12/21 05:16:18;;;;;;;110.78;18.02;;;9.20;99.90;;;;;;4972552;28;95635;-75
2022/12/21 05:18:48;;;;;;;107.50;19.00;;;9.20;99.90;;;;;;4973554;28;97687;-75
2022/12/21 05:21:16;;;;;;;99.95;17.25;;;9.30;99.90;;;;;;4973710;28;92529;-75
2022/12/21 05:23:43;;;;;;;119.00;19.10;;;9.20;99.90;;;;;;4973497;28;92626;-75
2022/12/21 05:26:11;;;;;;;131.40;17.95;;;9.20;99.90;;;;;;4990084;28;93146;-75
2022/12/21 05:28:45;;;;;;;113.43;19.08;;;9.30;99.90;;;;;;4975154;28;93141;-75
2022/12/21 05:31:14;;;;;;;77.25;17.05;;;9.30;99.90;;;;;;4973742;28;92895;-75
2022/12/21 05:33:42;;;;;;;116.00;19.35;;;9.20;99.90;;;;;;4974733;28;91824;-75
2022/12/21 05:36:11;;;;;;;97.63;18.23;;;9.30;99.90;;;;;;4976701;28;96458;-75
2022/12/21 05:38:38;;;;;;;69.15;16.67;;;9.30;99.90;;;;;;4978245;28;93594;-75
2022/12/21 05:41:06;;;;;;;86.32;17.83;;;9.30;99.90;;;;;;4992643;28;94939;-75
2022/12/21 05:43:33;;;;;;;92.35;17.00;;;9.30;99.90;;;;;;4978283;28;92447;-75
2022/12/21 05:46:05;;;;;;;85.35;17.83;;;9.30;99.90;;;;;;4978444;28;93379;-75
2022/12/21 05:48:32;;;;;;;93.32;17.40;;;9.30;99.90;;;;;;4976573;28;95945;-75
2022/12/21 05:51:04;;;;;;;106.18;17.60;;;9.30;99.90;;;;;;4978538;28;92467;-74
2022/12/21 05:53:31;;;;;;;102.47;19.17;;;9.30;99.90;;;;;;4978309;28;92422;-75
2022/12/21 05:55:58;;;;;;;101.95;19.20;;;9.30;99.90;;;;;;4977952;28;98316;-75
2022/12/21 05:58:25;;;;;;;106.03;18.42;;;9.30;99.90;;;;;;4976907;28;91798;-75
2022/12/21 06:00:52;;;;;;;103.25;18.23;;;9.30;99.90;;;;;;4977024;28;92764;-76
2022/12/21 06:03:20;;;;;;;104.85;20.48;;;9.30;99.90;;;;;;4992906;28;92479;-75
2022/12/21 06:05:48;;;;;;;122.82;19.98;;;9.30;99.90;;;;;;4976568;28;95708;-75
2022/12/21 06:08:14;;;;;;;121.13;20.88;;;9.40;99.90;;;;;;4977627;28;95582;-75
2022/12/21 06:10:41;;;;;;;221.55;24.67;;;9.40;99.90;;;;;;4978053;28;93124;-75
2022/12/21 06:13:08;;;;;;;101.30;21.80;;;9.40;99.90;;;;;;4976743;28;92525;-75
2022/12/21 06:15:38;;;;;;;120.22;22.15;;;9.40;99.90;;;;;;4977704;28;98990;-75
2022/12/21 06:18:06;;;;;;;104.95;20.33;;;9.40;99.90;;;;;;4976409;28;95360;-75
2022/12/21 06:20:33;;;;;;;116.90;20.75;;;9.40;99.90;;;;;;4976217;28;92438;-75
2022/12/21 06:23:00;;;;;;;115.97;21.38;;;9.40;99.90;;;;;;4978149;28;91706;-75
2022/12/21 06:25:27;;;;;;;155.13;22.88;;;9.40;99.90;;;;;;4976224;28;93233;-75
2022/12/21 06:27:54;;;;;;;120.28;21.40;;;9.40;99.90;;;;;;4976584;28;93257;-75
2022/12/21 06:30:21;;;;;;;115.63;21.80;;;9.40;99.90;;;;;;4991263;28;94800;-75
2022/12/21 06:32:48;;;;;;;128.82;21.98;;;9.50;99.90;;;;;;4992720;28;92447;-75
2022/12/21 06:35:17;;;;;;;243.23;27.40;;;9.50;99.90;;;;;;4992720;28;93536;-75
2022/12/21 06:37:44;;;;;;;141.57;23.17;;;9.50;99.90;;;;;;4992335;28;96593;-74
2022/12/21 06:40:11;;;;;;;146.60;25.13;;;9.50;99.90;;;;;;4977514;28;92366;-75
2022/12/21 06:42:38;;;;;;;139.73;24.48;;;9.50;99.90;;;;;;4977568;28;92453;-75
2022/12/21 06:45:06;;;;;;;122.07;24.52;;;9.50;99.90;;;;;;4975181;28;95751;-74
2022/12/21 06:47:33;;;;;;;182.48;28.15;;;9.50;99.90;;;;;;4975968;28;95844;-74
2022/12/21 06:50:00;;;;;;;228.43;31.13;;;9.60;99.90;;;;;;4975963;28;92629;-75
2022/12/21 06:52:27;;;;;;;185.95;28.38;;;9.60;99.90;;;;;;4992550;28;92742;-75
2022/12/21 06:54:55;;;;;;;121.55;25.45;;;9.60;99.90;;;;;;4975851;28;95656;-75
2022/12/21 06:57:22;;;;;;;143.25;26.73;;;9.60;99.90;;;;;;4976616;28;95562;-75
2022/12/21 06:59:52;;;;;;;157.93;25.52;;;9.60;99.90;;;;;;4975859;28;92897;-74
2022/12/21 07:02:19;;;;;;;105.28;24.60;;;9.70;99.90;;;;;;4975842;28;92543;-75
2022/12/21 07:04:46;;;;;;;117.60;24.98;;;9.70;99.90;;;;;;4977143;28;93092;-75
2022/12/21 07:07:13;;;;;;;102.30;24.02;;;9.70;99.90;;;;;;4975746;28;93062;-76
2022/12/21 07:09:40;;;;;;;102.43;24.08;;;9.70;99.90;;;;;;4992097;28;92574;-76
2022/12/21 07:12:07;;;;;;;98.65;24.88;;;9.70;99.90;;;;;;4992340;28;91789;-76
2022/12/21 07:14:34;;;;;;;119.30;25.92;;;9.70;99.90;;;;;;4992200;28;92711;-76
2022/12/21 07:17:01;;;;;;;100.03;25.92;;;9.70;99.90;;;;;;4992148;28;93060;-76
2022/12/21 07:19:29;;;;;;;122.03;26.50;;;9.70;99.90;;;;;;4973769;28;97833;-74
2022/12/21 07:21:56;;;;;;;154.65;27.98;;;9.80;99.90;;;;;;4976903;28;92522;-74
2022/12/21 07:24:23;;;;;;;94.57;25.80;;;9.70;99.90;;;;;;4975482;28;93263;-74
2022/12/21 07:26:50;;;;;;;94.63;26.73;;;9.80;99.90;;;;;;4975386;28;92982;-75
2022/12/21 07:29:17;;;;;;;86.82;24.50;;;9.70;99.90;;;;;;4976571;28;92473;-75
2022/12/21 07:31:44;;;;;;;73.85;22.08;;;9.70;99.90;;;;;;4976711;28;92876;-75
2022/12/21 07:34:11;;;;;;;81.10;25.00;;;9.70;99.90;;;;;;4991517;28;93521;-75
2022/12/21 07:36:38;;;;;;;79.85;23.33;;;9.70;99.90;;;;;;4975329;28;95574;-75
2022/12/21 07:39:05;;;;;;;65.78;21.42;;;9.80;99.90;;;;;;4992061;28;92527;-75
2022/12/21 07:41:32;;;;;;;63.03;21.63;;;9.80;99.90;;;;;;4975143;28;92833;-76
2022/12/21 07:43:59;;;;;;;76.35;23.35;;;9.80;99.90;;;;;;4990495;28;95904;-76
2022/12/21 07:46:55;;;;;;;63.42;20.85;;;9.80;99.90;;;;;;4976063;28;95484;-76
2022/12/21 07:49:25;;;;;;;67.05;20.88;;;9.70;99.90;;;;;;4975706;28;92743;-76
2022/12/21 07:51:51;;;;;;;61.30;21.90;;;9.80;99.90;;;;;;4974527;28;92607;-76
2022/12/21 07:54:19;;;;;;;70.43;21.55;;;9.70;99.90;;;;;;4976383;28;93341;-76
2022/12/21 07:56:46;;;;;;;69.55;22.00;;;9.70;99.90;;;;;;4990123;28;95750;-75
2022/12/21 07:59:13;;;;;;;78.05;21.73;;;9.70;99.90;;;;;;4991708;28;93193;-76
2022/12/21 08:01:40;;;;;;;72.88;22.65;;;9.80;99.90;;;;;;4991648;28;91738;-75
2022/12/21 08:04:07;;;;;;;84.63;22.92;;;9.80;99.90;;;;;;4976079;28;93287;-75
2022/12/21 08:06:35;;;;;;;70.28;20.65;;;9.80;99.90;;;;;;4975670;28;92993;-75
2022/12/21 08:09:06;;;;;;;73.88;22.25;;;9.80;99.90;;;;;;4975290;28;95364;-75
2022/12/21 08:11:33;;;;;;;82.43;22.13;;;9.80;99.90;;;;;;4976080;28;92486;-75
2022/12/21 08:14:00;;;;;;;71.63;22.77;;;9.70;99.90;;;;;;4976017;28;93175;-75
2022/12/21 08:16:27;;;;;;;70.47;21.27;;;9.70;99.90;;;;;;4974703;28;93229;-75
2022/12/21 08:18:55;;;;;;;71.13;21.92;;;9.80;99.90;;;;;;4990982;28;92938;-76
2022/12/21 08:21:22;;;;;;;68.90;22.70;;;9.80;99.90;;;;;;4991234;28;92513;-75
2022/12/21 08:23:49;;;;;;;70.75;21.88;;;9.80;99.90;;;;;;4990692;28;93303;-75
2022/12/21 08:26:16;;;;;;;82.72;23.02;;;9.80;99.90;;;;;;4974948;28;96539;-75
2022/12/21 08:28:44;;;;;;;76.28;23.17;;;9.80;99.90;;;;;;4974525;28;93164;-75
2022/12/21 08:31:17;;;;;;;102.25;23.83;;;9.80;99.90;;;;;;4974575;28;92574;-75
2022/12/21 08:33:45;;;;;;;74.32;21.85;;;9.80;99.90;;;;;;4972732;28;98333;-75
2022/12/21 08:36:17;;;;;;;71.25;22.02;;;9.80;99.90;;;;;;4974053;28;98363;-75
2022/12/21 08:38:45;;;;;;;55.90;19.65;;;9.90;99.90;;;;;;4975597;28;92452;-75
2022/12/21 08:41:32;;;;;;;71.15;21.83;;;9.90;99.90;;;;;;4974673;28;92531;-75
2022/12/21 08:43:59;;;;;;;68.15;21.27;;;9.80;99.90;;;;;;4973814;28;95864;-75
2022/12/21 08:46:26;;;;;;;64.05;20.85;;;9.90;99.90;;;;;;4974019;28;95516;-75
2022/12/21 08:48:53;;;;;;;70.47;21.38;;;9.90;99.90;;;;;;4990807;28;93057;-75
2022/12/21 08:51:20;;;;;;;68.45;21.95;;;9.90;99.90;;;;;;4974331;28;92159;-75
2022/12/21 08:53:47;;;;;;;60.75;20.50;;;9.90;99.90;;;;;;4973686;28;96233;-75
2022/12/21 08:56:18;;;;;;;66.15;20.45;;;9.80;99.90;;;;;;4974183;28;93499;-75
2022/12/21 08:58:45;;;;;;;68.13;21.67;;;9.80;99.90;;;;;;4989354;28;94886;-75
2022/12/21 09:01:16;;;;;;;72.82;24.75;;;9.80;99.90;;;;;;4975420;28;92967;-75
2022/12/21 09:03:43;;;;;;;77.57;30.15;;;9.80;99.90;;;;;;4973619;28;92977;-75
2022/12/21 09:06:10;;;;;;;72.57;24.08;;;9.80;99.90;;;;;;4957623;28;95893;-75
2022/12/21 09:08:37;;;;;;;65.28;23.65;;;9.80;99.90;;;;;;4975166;28;92498;-75
2022/12/21 09:11:08;;;;;;;57.83;22.65;;;9.90;99.90;;;;;;4957145;28;92562;-76
2022/12/21 09:13:35;;;;;;;62.13;21.33;;;10.00;99.90;;;;;;4975022;28;93868;-74
2022/12/21 09:16:10;;;;;;;60.75;24.50;;;10.00;99.90;;;;;;4973941;28;99271;-74
2022/12/21 09:18:37;;;;;;;57.83;20.45;;;10.10;99.90;;;;;;4990325;28;92531;-75
2022/12/21 09:21:04;;;;;;;55.22;20.55;;;10.10;99.90;;;;;;4974883;28;92458;-75
2022/12/21 09:23:31;;;;;;;54.78;20.25;;;10.20;99.90;;;;;;4971722;28;98446;-75
2022/12/21 09:25:58;;;;;;;48.67;20.10;;;10.30;99.90;;;;;;4989798;28;95419;-75
2022/12/21 09:28:25;;;;;;;45.97;19.13;;;10.30;99.90;;;;;;4990480;28;92390;-75
2022/12/21 09:30:52;;;;;;;57.70;19.85;;;10.30;99.90;;;;;;4975038;28;92489;-74
2022/12/21 09:33:23;;;;;;;50.55;18.42;;;10.40;99.90;;;;;;4973522;28;93488;-75
2022/12/21 09:35:52;;;;;;;51.63;19.88;;;10.40;99.90;;;;;;4974771;28;93140;-75
2022/12/21 09:38:19;;;;;;;44.10;19.35;;;10.50;99.90;;;;;;4973289;28;93133;-75
2022/12/21 09:40:46;;;;;;;44.28;18.33;;;10.60;99.90;;;;;;4975020;28;91711;-75
2022/12/21 09:43:31;;;;;;;47.55;19.58;;;10.70;99.90;;;;;;4989877;28;93570;-75
2022/12/21 09:46:02;;;;;;;48.38;19.85;;;10.90;99.90;;;;;;4989597;28;96436;-75
2022/12/21 09:48:52;;;;;;;48.47;20.48;;;10.90;99.90;;;;;;4973829;28;94847;-75
2022/12/21 09:51:22;;;;;;;42.15;18.23;;;11.00;99.90;;;;;;4974918;28;92453;-75
2022/12/21 09:54:16;;;;;;;47.75;20.15;;;10.90;99.90;;;;;;4973353;28;93291;-75
2022/12/21 09:56:47;;;;;;;48.13;19.42;;;11.00;99.90;;;;;;4974770;28;92956;-75
2022/12/21 09:59:17;;;;;;;44.63;18.67;;;10.90;99.90;;;;;;4974748;28;92409;-75
2022/12/21 10:02:18;;;;;;;41.83;18.48;;;10.90;99.90;;;;;;4974811;28;92430;-75
2022/12/21 10:05:16;;;;;;;45.00;18.58;;;11.00;99.90;;;;;;4974447;28;93688;-75
2022/12/21 10:08:02;;;;;;;46.00;19.42;;;11.00;99.90;;;;;;4973689;28;93138;-75
2022/12/21 10:10:40;;;;;;;49.83;19.80;;;11.00;99.90;;;;;;4974883;28;92620;-75
2022/12/21 10:13:07;;;;;;;53.05;21.13;;;10.90;99.90;;;;;;4989492;28;92624;-75
2022/12/21 10:15:44;;;;;;;50.78;20.25;;;10.90;99.90;;;;;;4972006;28;95836;-75
2022/12/21 10:18:23;;;;;;;51.28;21.65;;;10.90;99.90;;;;;;4974480;28;94294;-75
2022/12/21 10:20:56;;;;;;;47.42;20.40;;;10.80;99.90;;;;;;4977489;28;92542;-75
2022/12/21 10:23:26;;;;;;;56.75;23.55;;;10.80;99.90;;;;;;4976690;28;92560;-75
2022/12/21 10:25:57;;;;;;;54.72;23.33;;;10.80;99.90;;;;;;4977241;28;93162;-75
2022/12/21 10:28:40;;;;;;;56.58;22.40;;;10.80;99.90;;;;;;4976339;28;93085;-75
2022/12/21 10:31:10;;;;;;;57.00;21.40;;;10.90;99.90;;;;;;4977446;28;92561;-74
2022/12/21 10:33:42;;;;;;;53.80;21.75;;;10.80;99.90;;;;;;4976043;28;91779;-74
2022/12/21 10:36:22;;;;;;;49.40;22.75;;;10.80;99.90;;;;;;4977186;28;93382;-74
2022/12/21 10:38:49;;;;;;;50.10;22.58;;;10.80;99.90;;;;;;4977461;28;93169;-75
2022/12/21 10:41:23;;;;;;;57.45;24.38;;;10.70;99.90;;;;;;4991257;28;94898;-74
2022/12/21 10:43:52;;;;;;;;;;;10.80;99.90;;;;;;4976610;28;92486;-75
2022/12/21 10:46:20;;;;;;;45.53;20.63;;;10.70;99.90;;;;;;4977263;28;95688;-75
2022/12/21 10:48:51;;;;;;;53.70;23.80;;;10.70;99.90;;;;;;4975775;28;95798;-75
2022/12/21 10:51:35;;;;;;;51.65;23.23;;;10.70;99.90;;;;;;4977320;28;92487;-74
2022/12/21 10:54:05;;;;;;;49.47;20.65;;;10.80;99.90;;;;;;4976304;28;92479;-75
2022/12/21 10:56:45;;;;;;;43.80;20.08;;;10.80;99.90;;;;;;4975832;28;95956;-74
2022/12/21 10:59:23;;;;;;;43.03;18.75;;;10.80;99.90;;;;;;4976009;28;93111;-74
2022/12/21 11:01:51;;;;;;;37.75;17.63;;;10.80;99.90;;;;;;4992701;28;92684;-74
2022/12/21 11:04:21;;;;;;;43.05;20.05;;;10.80;99.90;;;;;;4976798;28;92386;-74
2022/12/21 11:07:21;;;;;;;44.03;20.85;;;10.90;99.90;;;;;;4974683;28;95675;-74
2022/12/21 11:10:28;;;;;;;42.47;19.23;;;10.90;99.90;;;;;;4975282;28;98201;-74
2022/12/21 11:13:17;;;;;;;34.67;17.23;;;10.90;99.90;;;;;;4989373;28;92568;-74
2022/12/21 11:15:55;;;;;;;43.38;18.95;;;10.80;99.90;;;;;;4976117;28;93098;-75
2022/12/21 11:18:46;;;;;;;40.28;19.48;;;10.80;99.90;;;;;;4976852;28;93291;-75
2022/12/21 11:21:38;;;;;;;38.83;19.90;;;10.80;99.90;;;;;;4976753;28;93144;-75
2022/12/21 11:24:13;;;;;;;45.70;19.45;;;10.80;99.90;;;;;;4976509;28;92362;-76
2022/12/21 11:26:46;;;;;;;43.33;18.77;;;10.70;99.90;;;;;;4977158;28;91669;-76
2022/12/21 11:29:24;;;;;;;45.67;18.05;;;10.70;99.90;;;;;;4991638;28;95757;-75
2022/12/21 11:31:53;;;;;;;44.28;18.63;;;10.70;99.90;;;;;;4976636;28;93378;-75
2022/12/21 11:34:37;;;;;;;43.45;19.20;;;10.70;99.90;;;;;;4974167;28;95145;-75
2022/12/21 11:37:22;;;;;;;49.88;19.42;;;10.70;99.90;;;;;;4976485;28;92449;-76
2022/12/21 11:39:49;;;;;;;40.00;18.73;;;10.70;99.90;;;;;;4975058;28;95415;-75
2022/12/21 11:42:21;;;;;;;39.25;18.48;;;10.70;99.90;;;;;;4958556;28;96159;-76
2022/12/21 11:44:51;;;;;;;38.00;18.75;;;10.70;99.90;;;;;;4976506;28;92513;-75
2022/12/21 11:47:40;;;;;;;44.63;19.20;;;10.70;99.90;;;;;;4974855;28;92468;-75
2022/12/21 11:50:19;;;;;;;45.95;22.10;;;10.80;99.90;;;;;;4974970;28;93203;-76
2022/12/21 11:52:56;;;;;;;36.70;18.33;;;10.80;99.90;;;;;;4976816;28;93460;-76
2022/12/21 11:55:23;;;;;;;39.33;17.05;;;10.80;99.90;;;;;;4976223;28;92464;-76
2022/12/21 11:58:06;;;;;;;41.25;19.90;;;10.80;99.90;;;;;;4974965;28;92553;-75
2022/12/21 12:00:55;;;;;;;47.67;20.50;;;10.80;99.90;;;;;;4975074;28;96178;-75
2022/12/21 12:04:03;;;;;;;40.28;17.85;;;10.80;99.90;;;;;;4975835;28;95382;-75
2022/12/21 12:06:49;;;;;;;49.10;19.55;;;10.70;99.90;;;;;;4974826;28;93020;-75
2022/12/21 12:09:37;;;;;;;44.55;18.48;;;10.70;99.90;;;;;;4976124;28;92365;-75
2022/12/21 12:12:31;;;;;;;44.20;19.48;;;10.70;99.90;;;;;;4974562;28;95756;-75
2022/12/21 12:15:10;;;;;;;36.47;17.45;;;10.70;99.90;;;;;;4976342;28;92945;-75
2022/12/21 12:18:08;;;;;;;43.05;19.88;;;10.60;99.90;;;;;;4975999;28;93175;-75
2022/12/21 12:20:41;;;;;;;41.35;19.27;;;10.70;99.90;;;;;;4976703;28;91830;-74
2022/12/21 12:23:31;;;;;;;46.37;20.30;;;10.60;99.90;;;;;;4974067;28;96542;-74
2022/12/21 12:25:58;;;;;;;46.38;19.58;;;10.60;99.90;;;;;;4974493;28;93462;-74
2022/12/21 12:28:37;;;;;;;46.13;19.38;;;10.60;99.90;;;;;;4973112;28;94920;-76
2022/12/21 12:31:42;;;;;;;45.70;19.30;;;10.70;99.90;;;;;;4975782;28;92450;-75
2022/12/21 12:34:21;;;;;;;52.60;19.85;;;10.70;99.90;;;;;;4974086;28;96129;-76
2022/12/21 12:37:14;;;;;;;48.33;20.30;;;10.70;99.90;;;;;;4974509;28;93036;-75
2022/12/21 12:39:50;;;;;;;41.65;19.83;;;10.70;99.90;;;;;;4971395;28;93074;-76
2022/12/21 12:42:23;;;;;;;50.20;21.23;;;10.60;99.90;;;;;;4973867;28;92974;-76
2022/12/21 12:45:12;;;;;;;46.67;21.23;;;10.60;99.90;;;;;;4974042;28;96088;-76
2022/12/21 12:47:43;;;;;;;80.03;39.28;;;10.70;99.90;;;;;;4974567;28;95138;-75
2022/12/21 12:50:22;;;;;;;58.33;24.30;;;10.60;99.90;;;;;;4975601;28;92495;-76
2022/12/21 12:53:04;;;;;;;51.72;20.00;;;10.60;99.90;;;;;;4974467;28;92509;-76
2022/12/21 12:55:49;;;;;;;53.92;23.50;;;10.60;99.90;;;;;;4972267;28;98341;-76
2022/12/21 12:58:22;;;;;;;50.55;23.33;;;10.50;99.90;;;;;;4974099;28;95667;-76
2022/12/21 13:01:11;;;;;;;50.20;22.17;;;10.40;99.90;;;;;;4975364;28;92829;-76
2022/12/21 13:03:53;;;;;;;46.13;20.48;;;10.40;99.90;;;;;;4973749;28;92514;-76
2022/12/21 13:06:27;;;;;;;49.42;20.83;;;10.30;99.90;;;;;;4975128;28;93254;-77
2022/12/21 13:09:15;;;;;;;49.63;21.58;;;10.20;99.90;;;;;;4990336;28;93058;-76
2022/12/21 13:12:10;;;;;;;51.42;23.08;;;10.20;99.90;;;;;;4975349;28;92343;-76
2022/12/21 13:15:12;;;;;;;54.83;21.70;;;10.20;99.90;;;;;;4975565;28;92306;-77
2022/12/21 13:17:55;;;;;;;53.00;22.88;;;10.20;99.90;;;;;;4974516;28;93369;-76
2022/12/21 13:20:25;;;;;;;54.30;23.35;;;10.10;99.90;;;;;;4973281;28;95748;-76
2022/12/21 13:23:01;;;;;;;48.90;21.67;;;10.10;99.90;;;;;;4989061;28;94955;-77